CDT,Max TemperatureF,Mean TemperatureF,Min TemperatureF,Max Dew PointF,MeanDew PointF,Min DewpointF,Max Humidity, Mean Humidity, Min Humidity, Max Sea Level PressureIn, Mean Sea Level PressureIn, Min Sea Level PressureIn, Max VisibilityMiles, Mean VisibilityMiles, Min VisibilityMiles, Max Wind SpeedMPH, Mean Wind SpeedMPH, Max Gust SpeedMPH,PrecipitationIn, CloudCover, Events, WindDirDegrees
2013-7-1,80,70,60,54,47,43,63,44,26,30.27,30.22,30.18,10,10,9,17,7,24,0.00,1,,73
2013-7-2,82,68,53,46,41,34,72,38,18,30.27,30.21,30.13,10,10,3,10,4,17,0.00,0,,85
2013-7-3,84,72,59,48,44,39,59,37,25,30.18,30.08,29.99,10,10,10,21,10,29,0.00,1,,188
2013-7-4,91,74,57,52,47,43,59,38,23,30.02,29.98,29.91,10,10,10,22,11,31,0.00,0,,185
2013-7-5,98,84,69,54,48,45,43,30,20,29.96,29.89,29.81,10,10,10,29,16,37,0.00,0,Thunderstorm,182
2013-7-6,100,88,75,54,48,45,36,27,20,29.94,29.87,29.83,10,10,10,30,19,39,0.00,0,,185
2013-7-7,100,84,68,55,50,45,47,30,20,30.04,29.97,29.93,10,10,10,23,13,31,0.00,0,,190
2013-7-8,100,86,71,55,53,50,53,33,21,30.09,30.04,29.99,10,10,10,23,12,33,0.00,0,,184
2013-7-9,104,88,71,63,56,52,53,34,21,30.07,30.03,29.97,10,10,9,22,13,28,0.01,1,Thunderstorm,194
2013-7-10,98,84,71,63,59,52,69,44,27,30.17,30.08,30.01,10,10,4,30,11,38,0.00,0,Thunderstorm,22
2013-7-11,96,84,71,63,59,57,64,47,27,30.16,30.06,29.96,10,10,9,25,13,36,0.00,0,,178
2013-7-12,102,86,69,63,58,54,73,41,20,30.02,29.98,29.91,10,10,10,24,13,31,0.00,1,,161
2013-7-13,102,86,69,57,52,45,60,32,15,30.04,30.00,29.93,10,10,10,18,11,28,0.00,0,,178
2013-7-14,84,74,64,59,53,46,77,50,32,30.18,30.03,29.95,10,10,10,24,11,31,0.00,2,,129
2013-7-15,77,67,57,61,56,54,88,68,44,30.23,30.18,30.13,10,9,0,16,6,22,0.14,5,,71
2013-7-16,75,68,62,64,60,57,88,80,65,30.35,30.25,30.20,10,8,2,22,10,28,0.19,6,,129
2013-7-17,84,74,64,66,63,61,88,72,48,30.39,30.33,30.27,10,9,1,26,10,36,0.01,6,,156
2013-7-18,89,76,64,66,62,61,88,65,38,30.29,30.18,30.05,10,10,4,24,13,32,0.00,2,,186
2013-7-19,95,82,69,64,62,57,78,53,32,30.11,30.02,29.92,10,10,10,23,16,30,0.00,0,,190
2013-7-20,89,79,69,66,64,59,83,64,43,30.06,29.97,29.90,10,10,9,24,8,28,0.29,3,Thunderstorm,147
2013-7-21,98,84,69,64,62,57,78,53,25,29.95,29.90,29.83,10,10,10,17,8,18,0.00,1,Thunderstorm,169
2013-7-22,100,84,69,61,57,52,64,40,21,29.94,29.90,29.84,10,10,9,25,13,37,0.00,0,,200
2013-7-23,104,88,71,64,60,48,69,43,20,29.97,29.91,29.85,10,10,10,21,14,26,0.00,0,,216
2013-7-24,93,80,68,63,60,55,83,57,29,30.15,30.07,29.98,10,10,9,23,14,31,0.00,1,,85
2013-7-25,87,78,68,66,62,57,78,62,43,30.20,30.08,29.98,10,10,7,30,15,34,0.25,2,Thunderstorm,207
2013-7-26,86,76,66,64,60,54,88,63,35,30.22,30.16,30.05,10,10,4,21,14,26,0.00,3,,30
2013-7-27,96,78,60,63,55,46,83,49,20,30.23,30.06,29.88,10,10,10,28,12,36,0.00,0,Thunderstorm,193
2013-7-28,95,80,66,61,56,48,73,51,28,30.04,29.95,29.86,10,10,10,26,15,40,0.09,2,Thunderstorm,195
2013-7-29,96,81,66,66,63,57,83,60,32,30.04,29.95,29.87,10,10,6,17,10,23,0.16,2,,159
2013-7-30,89,78,68,66,64,61,88,64,38,30.19,30.13,30.05,10,9,3,17,11,22,0.00,3,,48
2013-7-31,93,80,68,68,64,57,83,67,36,30.30,30.20,30.11,10,9,3,33,7,41,0.15,2,Thunderstorm,146